createdAt,value
2019-03-31T00:01:57.132Z,24.00
2019-03-31T00:04:32.934Z,23.67
2019-03-31T00:07:01.859Z,23.43
2019-03-31T00:09:30.931Z,23.40
2019-03-31T00:12:06.398Z,22.83
2019-03-31T00:14:35.408Z,24.23
2019-03-31T00:17:11.043Z,24.50
2019-03-31T00:19:39.947Z,24.37
2019-03-31T00:22:09.061Z,24.07
2019-03-31T00:24:45.506Z,23.60
2019-03-31T00:27:14.487Z,24.47
2019-03-31T00:29:50.644Z,25.03
2019-03-31T00:32:25.732Z,25.23
2019-03-31T00:35:01.961Z,25.07
2019-03-31T00:37:31.007Z,24.93
2019-03-31T00:40:00.040Z,26.30
2019-03-31T00:42:36.324Z,26.03
2019-03-31T00:45:13.801Z,26.03
2019-03-31T00:47:49.857Z,26.97
2019-03-31T00:50:18.954Z,27.07
2019-03-31T00:52:48.051Z,27.83
2019-03-31T00:55:24.237Z,31.67
2019-03-31T00:57:53.307Z,33.13
2019-03-31T01:00:31.827Z,30.50
2019-03-31T01:03:01.141Z,27.73
2019-03-31T01:05:30.242Z,28.40
2019-03-31T01:08:06.683Z,27.73
2019-03-31T01:10:35.558Z,28.03
2019-03-31T01:13:11.334Z,27.73
2019-03-31T01:15:42.189Z,29.73
2019-03-31T01:18:11.966Z,29.83
2019-03-31T01:20:47.946Z,29.23
2019-03-31T01:23:16.948Z,29.83
2019-03-31T01:25:53.069Z,30.30
2019-03-31T01:28:22.507Z,30.53
2019-03-31T01:30:51.699Z,29.93
2019-03-31T01:33:35.057Z,30.40
2019-03-31T01:36:04.902Z,29.97
2019-03-31T01:38:40.587Z,30.47
2019-03-31T01:41:09.723Z,31.50
2019-03-31T01:43:51.794Z,30.50
2019-03-31T01:46:23.557Z,31.73
2019-03-31T01:48:53.023Z,30.90
2019-03-31T01:51:28.604Z,32.80
2019-03-31T01:53:57.619Z,32.57
2019-03-31T01:56:33.587Z,33.10
2019-03-31T01:59:02.961Z,31.23
2019-03-31T02:01:31.954Z,32.80
2019-03-31T02:04:07.617Z,32.47
2019-03-31T02:06:36.695Z,32.23
2019-03-31T02:09:13.262Z,32.90
2019-03-31T02:11:42.370Z,33.77
2019-03-31T02:14:11.466Z,33.87
2019-03-31T02:16:48.622Z,34.90
2019-03-31T02:19:17.649Z,34.23
2019-03-31T02:21:53.864Z,35.53
2019-03-31T02:24:22.847Z,34.73
2019-03-31T02:26:52.100Z,35.17
2019-03-31T02:29:27.759Z,35.47
2019-03-31T02:31:56.943Z,36.73
2019-03-31T02:34:39.994Z,36.73
2019-03-31T02:37:08.858Z,36.60
2019-03-31T02:39:38.066Z,36.60
2019-03-31T02:42:14.220Z,37.53
2019-03-31T02:44:51.328Z,39.40
2019-03-31T02:47:34.080Z,36.80
2019-03-31T02:50:03.058Z,38.50
2019-03-31T02:52:32.013Z,37.63
2019-03-31T02:55:09.067Z,38.17
2019-03-31T02:57:38.192Z,38.50
2019-03-31T03:00:14.521Z,38.77
2019-03-31T03:02:43.739Z,39.07
2019-03-31T03:05:19.757Z,39.03
2019-03-31T03:07:55.974Z,40.33
2019-03-31T03:10:25.589Z,39.07
2019-03-31T03:13:02.563Z,39.47
2019-03-31T03:15:33.073Z,38.00
2019-03-31T03:18:02.195Z,40.30
2019-03-31T03:20:38.566Z,39.10
2019-03-31T03:23:07.401Z,40.77
2019-03-31T03:25:55.932Z,39.90
2019-03-31T03:28:14.861Z,40.17
2019-03-31T03:30:44.345Z,39.83
2019-03-31T03:33:21.301Z,41.83
2019-03-31T03:35:57.093Z,40.43
2019-03-31T03:38:33.364Z,42.73
2019-03-31T03:41:02.764Z,40.80
2019-03-31T03:43:54.075Z,41.63
2019-03-31T03:46:16.170Z,42.37
2019-03-31T03:49:00.958Z,43.53
2019-03-31T03:51:30.178Z,42.90
2019-03-31T03:53:59.582Z,42.80
2019-03-31T03:56:35.151Z,42.93
2019-03-31T03:59:04.023Z,41.93
2019-03-31T04:01:40.426Z,40.97
2019-03-31T04:04:09.485Z,43.47
2019-03-31T04:06:38.892Z,41.90
2019-03-31T04:09:14.339Z,42.20
2019-03-31T04:11:43.465Z,42.93
2019-03-31T04:14:19.586Z,42.47
2019-03-31T04:16:48.603Z,41.57
2019-03-31T04:19:24.268Z,41.37
2019-03-31T04:21:53.332Z,41.70
2019-03-31T04:24:22.526Z,40.13
2019-03-31T04:26:59.197Z,40.33
2019-03-31T04:29:28.407Z,41.10
2019-03-31T04:32:04.274Z,42.20
2019-03-31T04:34:33.101Z,40.63
2019-03-31T04:37:08.796Z,39.47
2019-03-31T04:39:44.696Z,39.63
2019-03-31T04:42:13.750Z,39.80
2019-03-31T04:44:50.299Z,37.27
2019-03-31T04:47:26.486Z,41.07
2019-03-31T04:50:02.443Z,38.97
2019-03-31T04:52:31.434Z,38.67
2019-03-31T04:55:00.484Z,38.47
2019-03-31T04:57:37.413Z,41.63
2019-03-31T05:00:06.723Z,39.43
2019-03-31T05:02:42.247Z,40.33
2019-03-31T05:05:11.116Z,39.87
2019-03-31T05:07:39.953Z,40.87
2019-03-31T05:10:16.206Z,41.40
2019-03-31T05:12:45.296Z,40.90
2019-03-31T05:15:21.155Z,42.00
2019-03-31T05:17:50.265Z,40.67
2019-03-31T05:20:19.352Z,41.57
2019-03-31T05:22:55.355Z,43.03
2019-03-31T05:25:24.495Z,43.17
2019-03-31T05:28:00.663Z,42.20
2019-03-31T05:30:29.866Z,41.37
2019-03-31T05:33:00.402Z,41.37
2019-03-31T05:35:36.040Z,40.70
2019-03-31T05:38:11.299Z,41.73
2019-03-31T05:40:47.465Z,41.90
2019-03-31T05:43:16.645Z,41.13
2019-03-31T05:45:52.600Z,42.63
2019-03-31T05:48:28.963Z,41.93
2019-03-31T05:51:04.308Z,42.70
2019-03-31T05:53:33.188Z,41.03
2019-03-31T05:56:02.281Z,41.23
2019-03-31T05:58:38.120Z,40.23
2019-03-31T06:01:08.957Z,41.47
2019-03-31T06:03:45.049Z,40.77
2019-03-31T06:06:13.937Z,42.13
2019-03-31T06:08:43.048Z,41.13
2019-03-31T06:11:18.866Z,39.50
2019-03-31T06:13:47.779Z,40.23
2019-03-31T06:16:24.744Z,40.17
2019-03-31T06:18:54.188Z,39.47
2019-03-31T06:21:23.260Z,40.37
2019-03-31T06:23:58.852Z,42.03
2019-03-31T06:26:27.806Z,43.70
2019-03-31T06:29:03.565Z,43.77
2019-03-31T06:31:32.756Z,45.13
2019-03-31T06:34:01.651Z,42.70
2019-03-31T06:36:37.929Z,43.20
2019-03-31T06:39:13.349Z,46.97
2019-03-31T06:41:49.827Z,45.67
2019-03-31T06:44:19.127Z,48.33
2019-03-31T06:46:54.376Z,46.10
2019-03-31T06:49:23.545Z,46.37
2019-03-31T06:51:52.764Z,47.27
2019-03-31T06:54:27.916Z,46.67
2019-03-31T06:56:56.811Z,47.77
2019-03-31T06:59:32.541Z,47.90
2019-03-31T07:02:03.327Z,47.97
2019-03-31T07:04:32.374Z,46.97
2019-03-31T07:07:07.826Z,48.03
2019-03-31T07:09:36.915Z,49.73
2019-03-31T07:12:12.772Z,46.33
2019-03-31T07:14:41.638Z,48.00
2019-03-31T07:17:10.758Z,51.60
2019-03-31T07:19:46.652Z,45.53
2019-03-31T07:22:15.709Z,46.57
2019-03-31T07:24:51.565Z,45.50
2019-03-31T07:27:20.475Z,45.70
2019-03-31T07:29:49.344Z,41.60
2019-03-31T07:32:25.827Z,41.60
2019-03-31T07:34:55.020Z,39.30
2019-03-31T07:37:31.084Z,37.30
2019-03-31T07:40:12.693Z,37.03
2019-03-31T07:42:51.068Z,36.90
2019-03-31T07:45:21.508Z,38.23
2019-03-31T07:48:07.889Z,38.37
2019-03-31T07:50:35.184Z,37.00
2019-03-31T07:53:04.037Z,34.63
2019-03-31T07:55:40.418Z,36.83
2019-03-31T07:58:09.930Z,37.07
2019-03-31T08:00:46.397Z,38.00
2019-03-31T08:03:15.693Z,36.80
2019-03-31T08:05:44.791Z,34.63
2019-03-31T08:08:21.608Z,32.20
2019-03-31T08:10:50.528Z,32.23
2019-03-31T08:13:26.230Z,32.50
2019-03-31T08:15:55.209Z,31.80
2019-03-31T08:18:24.840Z,31.37
2019-03-31T08:21:00.575Z,30.50
2019-03-31T08:23:29.758Z,28.57
2019-03-31T08:26:04.960Z,30.90
2019-03-31T08:28:33.829Z,29.37
2019-03-31T08:31:02.785Z,30.60
2019-03-31T08:33:39.793Z,30.50
2019-03-31T08:36:08.760Z,26.20
2019-03-31T08:38:44.964Z,25.13
2019-03-31T08:41:21.458Z,27.07
2019-03-31T08:43:58.065Z,27.53
2019-03-31T08:46:27.014Z,27.90
2019-03-31T08:49:09.668Z,25.80
2019-03-31T08:51:45.015Z,27.73
2019-03-31T08:54:21.085Z,29.33
2019-03-31T08:56:50.273Z,29.57
2019-03-31T08:59:20.096Z,29.27
2019-03-31T09:01:56.357Z,29.00
2019-03-31T09:04:25.230Z,23.87
2019-03-31T09:07:01.335Z,23.60
2019-03-31T09:09:30.214Z,24.50
2019-03-31T09:11:59.292Z,22.37
2019-03-31T09:14:35.193Z,22.90
2019-03-31T09:17:04.126Z,22.67
2019-03-31T09:19:40.458Z,21.87
2019-03-31T09:22:09.608Z,21.27
2019-03-31T09:24:38.704Z,17.90
2019-03-31T09:27:14.183Z,16.53
2019-03-31T09:29:43.114Z,15.93
2019-03-31T09:32:19.513Z,15.70
2019-03-31T09:34:48.456Z,16.37
2019-03-31T09:37:17.786Z,15.93
2019-03-31T09:39:53.046Z,16.37
2019-03-31T09:42:28.561Z,17.97
2019-03-31T09:45:04.886Z,18.33
2019-03-31T09:47:33.771Z,15.13
2019-03-31T09:50:17.498Z,13.70
2019-03-31T09:52:46.355Z,13.23
2019-03-31T09:55:15.310Z,11.90
2019-03-31T09:57:51.814Z,13.33
2019-03-31T10:00:43.963Z,14.17
2019-03-31T10:03:22.070Z,14.57
2019-03-31T10:05:51.605Z,14.77
2019-03-31T10:08:22.293Z,15.37
2019-03-31T10:11:12.718Z,14.07
2019-03-31T10:13:48.371Z,13.27
2019-03-31T10:16:24.018Z,12.10
2019-03-31T10:18:53.114Z,11.33
2019-03-31T10:21:21.978Z,11.50
2019-03-31T10:23:59.085Z,13.37
2019-03-31T10:26:32.114Z,11.57
2019-03-31T10:29:05.913Z,11.03
2019-03-31T10:31:34.981Z,8.10
2019-03-31T10:34:05.192Z,7.53
2019-03-31T10:36:44.610Z,8.27
2019-03-31T10:39:12.004Z,8.13
2019-03-31T10:41:41.195Z,8.03
2019-03-31T10:44:17.259Z,7.80
2019-03-31T10:46:46.168Z,7.77
2019-03-31T10:49:21.800Z,6.90
2019-03-31T10:51:57.748Z,6.03
2019-03-31T10:54:33.969Z,7.07
2019-03-31T10:57:02.875Z,6.77
2019-03-31T10:59:31.800Z,7.33
2019-03-31T11:02:07.959Z,6.17
2019-03-31T11:04:37.062Z,6.80
2019-03-31T11:07:13.424Z,6.70
2019-03-31T11:09:42.406Z,6.30
2019-03-31T11:12:11.525Z,5.87
2019-03-31T11:14:47.775Z,5.87
2019-03-31T11:17:16.801Z,5.40
2019-03-31T11:19:45.763Z,6.60
2019-03-31T11:22:23.477Z,6.07
2019-03-31T11:24:52.385Z,6.07
2019-03-31T11:27:21.665Z,5.80
2019-03-31T11:29:57.203Z,5.63
2019-03-31T11:32:26.090Z,4.33
2019-03-31T11:34:55.085Z,4.07
2019-03-31T11:37:31.066Z,4.23
2019-03-31T11:40:00.390Z,4.30
2019-03-31T11:42:29.842Z,4.20
2019-03-31T11:45:06.234Z,4.20
2019-03-31T11:47:41.914Z,4.27
2019-03-31T11:50:19.129Z,5.30
2019-03-31T11:52:54.228Z,4.97
2019-03-31T11:55:36.820Z,5.40
2019-03-31T11:58:05.672Z,4.80
2019-03-31T12:00:36.172Z,5.10
2019-03-31T12:03:12.281Z,5.90
2019-03-31T12:05:41.379Z,5.50
2019-03-31T12:08:16.500Z,4.90
2019-03-31T12:10:45.427Z,5.60
2019-03-31T12:13:14.419Z,6.70
2019-03-31T12:15:50.574Z,8.70
2019-03-31T12:18:19.472Z,7.20
2019-03-31T12:20:56.128Z,6.37
2019-03-31T12:23:25.000Z,6.57
2019-03-31T12:25:54.224Z,6.30
2019-03-31T12:28:30.280Z,6.20
2019-03-31T12:30:59.178Z,7.00
2019-03-31T12:33:34.616Z,6.30
2019-03-31T12:36:04.737Z,6.33
2019-03-31T12:38:33.635Z,5.53
2019-03-31T12:41:08.998Z,6.07
2019-03-31T12:43:38.069Z,6.53
2019-03-31T12:46:20.709Z,6.23
2019-03-31T12:48:49.533Z,6.23
2019-03-31T12:51:31.593Z,6.03
2019-03-31T12:54:07.043Z,6.33
2019-03-31T12:56:42.782Z,6.53
2019-03-31T12:59:12.074Z,6.63
2019-03-31T13:04:53.284Z,7.67
2019-03-31T13:07:22.119Z,6.57
2019-03-31T13:09:57.813Z,5.03
2019-03-31T13:12:26.830Z,4.47
2019-03-31T13:14:56.006Z,4.70
2019-03-31T13:17:33.497Z,4.53
2019-03-31T13:20:02.592Z,4.63
2019-03-31T13:22:38.340Z,4.60
2019-03-31T13:25:08.255Z,3.50
2019-03-31T13:27:37.770Z,3.97
2019-03-31T13:30:16.181Z,4.07
2019-03-31T13:32:45.078Z,3.40
2019-03-31T13:35:22.051Z,3.53
2019-03-31T13:37:51.220Z,3.00
2019-03-31T13:40:20.758Z,3.00
2019-03-31T13:42:55.892Z,3.00
2019-03-31T13:45:24.808Z,3.10
2019-03-31T13:48:08.630Z,3.17
2019-03-31T13:50:37.506Z,2.40
2019-03-31T13:53:16.142Z,3.63
2019-03-31T13:55:43.541Z,3.40
2019-03-31T13:58:13.791Z,2.77
2019-03-31T14:00:50.564Z,2.10
2019-03-31T14:03:26.174Z,2.67
2019-03-31T14:06:10.041Z,1.73
2019-03-31T14:08:39.389Z,2.97
2019-03-31T14:11:08.387Z,2.00
2019-03-31T14:13:44.651Z,2.10
2019-03-31T14:16:13.549Z,2.20
2019-03-31T14:18:49.107Z,2.00
2019-03-31T14:21:18.386Z,1.60
2019-03-31T14:23:48.094Z,1.63
2019-03-31T14:26:24.268Z,1.40
2019-03-31T14:28:53.862Z,2.03
2019-03-31T14:31:29.849Z,1.87
2019-03-31T14:33:59.136Z,1.60
2019-03-31T14:36:28.526Z,1.27
2019-03-31T14:39:04.621Z,1.80
2019-03-31T14:41:33.495Z,2.10
2019-03-31T14:44:09.442Z,2.23
2019-03-31T14:46:38.772Z,1.70
2019-03-31T14:49:21.469Z,1.70
2019-03-31T14:51:50.448Z,1.83
2019-03-31T14:54:19.755Z,1.77
2019-03-31T14:56:56.015Z,1.43
2019-03-31T14:59:25.113Z,1.37
2019-03-31T15:02:00.552Z,1.80
2019-03-31T15:04:36.208Z,2.10
2019-03-31T15:07:28.090Z,1.63
2019-03-31T15:09:58.382Z,1.93
2019-03-31T15:12:28.377Z,1.93
2019-03-31T15:15:04.339Z,1.90
2019-03-31T15:17:33.239Z,1.30
2019-03-31T15:20:09.492Z,1.93
2019-03-31T15:22:38.589Z,1.70
2019-03-31T15:25:07.692Z,1.47
2019-03-31T15:27:44.066Z,1.80
2019-03-31T15:30:13.133Z,2.30
2019-03-31T15:32:42.067Z,2.50
2019-03-31T15:35:18.863Z,2.60
2019-03-31T15:37:47.808Z,1.90
2019-03-31T15:40:17.211Z,2.03
2019-03-31T15:42:53.062Z,1.93
2019-03-31T15:45:22.162Z,2.00
2019-03-31T15:47:51.341Z,1.87
2019-03-31T15:50:33.511Z,1.80
2019-03-31T15:53:02.490Z,1.70
2019-03-31T15:55:38.918Z,1.50
2019-03-31T15:58:08.017Z,1.93
2019-03-31T16:00:37.241Z,1.50
2019-03-31T16:03:12.764Z,2.93
2019-03-31T16:05:48.730Z,2.00
2019-03-31T16:08:31.865Z,1.80
2019-03-31T16:11:00.716Z,1.77
2019-03-31T16:13:30.140Z,2.10
2019-03-31T16:16:07.547Z,1.50
2019-03-31T16:18:36.438Z,1.77
2019-03-31T16:21:12.303Z,1.37
2019-03-31T16:23:42.405Z,1.87
2019-03-31T16:26:11.629Z,1.60
2019-03-31T16:28:47.842Z,1.97
2019-03-31T16:31:17.101Z,1.40
2019-03-31T16:33:53.040Z,1.80
2019-03-31T16:36:22.009Z,1.70
2019-03-31T16:38:51.134Z,1.70
2019-03-31T16:41:26.763Z,1.60
2019-03-31T16:43:55.671Z,1.40
2019-03-31T16:46:24.708Z,1.13
2019-03-31T16:49:07.982Z,1.67
2019-03-31T16:51:37.076Z,1.40
2019-03-31T16:54:12.721Z,1.17
2019-03-31T16:56:41.820Z,1.73
2019-03-31T16:59:10.708Z,1.37
2019-03-31T17:01:46.807Z,1.40
2019-03-31T17:04:15.865Z,1.20
2019-03-31T17:06:51.729Z,1.47
2019-03-31T17:09:27.937Z,1.07
2019-03-31T17:12:04.063Z,1.57
2019-03-31T17:14:32.939Z,1.97
2019-03-31T17:17:02.011Z,1.50
2019-03-31T17:19:37.767Z,2.40
2019-03-31T17:22:07.093Z,1.87
2019-03-31T17:24:36.183Z,1.50
2019-03-31T17:27:13.962Z,1.67
2019-03-31T17:29:41.956Z,1.60
2019-03-31T17:32:18.022Z,1.70
2019-03-31T17:34:47.032Z,4.20
2019-03-31T17:37:23.382Z,1.10
2019-03-31T17:40:06.098Z,2.03
2019-03-31T17:42:38.696Z,1.37
2019-03-31T17:45:08.763Z,1.17
2019-03-31T17:47:38.168Z,1.40
2019-03-31T17:50:24.049Z,1.87
2019-03-31T17:52:53.183Z,2.13
2019-03-31T17:55:29.455Z,1.60
2019-03-31T17:57:58.343Z,1.43
2019-03-31T18:00:27.258Z,1.30
2019-03-31T18:03:03.490Z,1.50
2019-03-31T18:05:32.366Z,1.87
2019-03-31T18:08:09.054Z,1.47
2019-03-31T18:10:38.021Z,1.70
2019-03-31T18:13:07.249Z,1.03
2019-03-31T18:15:43.305Z,1.40
2019-03-31T18:18:12.198Z,1.33
2019-03-31T18:20:48.488Z,2.63
2019-03-31T18:23:17.474Z,1.90
2019-03-31T18:25:46.449Z,1.70
2019-03-31T18:28:22.594Z,1.60
2019-03-31T18:30:51.455Z,1.77
2019-03-31T18:33:28.510Z,1.57
2019-03-31T18:35:57.577Z,1.60
2019-03-31T18:38:26.464Z,2.00
2019-03-31T18:41:03.837Z,2.73
2019-03-31T18:43:33.034Z,1.50
2019-03-31T18:46:08.003Z,1.90
2019-03-31T18:48:37.190Z,1.47
2019-03-31T18:51:21.033Z,2.00
2019-03-31T18:54:03.646Z,1.70
2019-03-31T18:56:41.331Z,1.57
2019-03-31T18:59:29.693Z,1.53
2019-03-31T19:02:07.185Z,1.60
2019-03-31T19:04:55.852Z,1.83
2019-03-31T19:07:43.474Z,1.53
2019-03-31T19:10:24.831Z,1.60
2019-03-31T19:13:13.960Z,1.00
2019-03-31T19:15:47.556Z,1.53
2019-03-31T19:18:30.866Z,1.20
2019-03-31T19:21:10.858Z,1.83
2019-03-31T19:24:05.950Z,1.83
2019-03-31T19:26:52.981Z,1.23
2019-03-31T19:29:32.774Z,1.40
2019-03-31T19:32:19.277Z,1.30
2019-03-31T19:34:58.418Z,1.70
2019-03-31T19:37:43.632Z,1.10
2019-03-31T19:40:21.384Z,1.53
2019-03-31T19:43:07.202Z,1.70
2019-03-31T19:46:00.883Z,2.33
2019-03-31T19:48:34.347Z,1.30
2019-03-31T19:51:14.293Z,1.43
2019-03-31T19:54:38.478Z,1.70
2019-03-31T19:57:28.265Z,1.10
2019-03-31T20:00:04.942Z,1.13
2019-03-31T20:02:54.437Z,2.17
2019-03-31T20:05:41.277Z,1.30
2019-03-31T20:08:30.413Z,1.90
2019-03-31T20:11:23.469Z,1.57
2019-03-31T20:14:06.057Z,1.50
2019-03-31T20:16:36.604Z,1.30
2019-03-31T20:19:09.984Z,1.53
2019-03-31T20:22:05.502Z,1.33
2019-03-31T20:24:36.236Z,1.40
2019-03-31T20:27:14.072Z,1.33
2019-03-31T20:29:44.855Z,1.30
2019-03-31T20:32:37.319Z,1.50
2019-03-31T20:35:15.007Z,1.70
2019-03-31T20:37:52.646Z,1.30
2019-03-31T20:40:23.242Z,1.27
2019-03-31T20:43:03.809Z,1.60
2019-03-31T20:45:32.719Z,1.17
2019-03-31T20:48:01.598Z,1.40
2019-03-31T20:50:38.060Z,1.93
2019-03-31T20:53:06.953Z,1.47
2019-03-31T20:55:49.622Z,1.50
2019-03-31T20:58:18.379Z,1.23
2019-03-31T21:00:47.216Z,1.37
2019-03-31T21:03:23.409Z,1.20
2019-03-31T21:05:52.218Z,1.33
2019-03-31T21:08:27.638Z,1.23
2019-03-31T21:11:03.958Z,1.53
2019-03-31T21:13:39.784Z,1.30
2019-03-31T21:16:08.641Z,1.47
2019-03-31T21:18:37.554Z,1.70
2019-03-31T21:21:13.914Z,1.50
2019-03-31T21:23:43.008Z,1.70
2019-03-31T21:26:12.103Z,1.40
2019-03-31T21:28:48.162Z,1.40
2019-03-31T21:31:17.258Z,1.50
2019-03-31T21:33:46.362Z,1.33
2019-03-31T21:36:22.415Z,1.43
2019-03-31T21:38:51.305Z,1.47
2019-03-31T21:41:26.686Z,1.47
2019-03-31T21:43:55.844Z,1.90
2019-03-31T21:46:24.940Z,1.97
2019-03-31T21:49:01.207Z,1.70
2019-03-31T21:51:30.020Z,1.83
2019-03-31T21:54:06.157Z,1.40
2019-03-31T22:07:07.506Z,2.10
2019-03-31T22:09:43.141Z,2.13
2019-03-31T22:12:26.783Z,1.80
2019-03-31T22:14:55.865Z,2.13
2019-03-31T22:17:24.864Z,1.70
2019-03-31T22:20:01.580Z,2.20
2019-03-31T22:22:30.877Z,1.60
2019-03-31T22:25:07.436Z,1.87
2019-03-31T22:27:36.636Z,2.00
2019-03-31T22:30:07.498Z,1.83
2019-03-31T22:32:43.603Z,1.97
2019-03-31T22:35:12.712Z,1.73
2019-03-31T22:37:49.995Z,1.73
2019-03-31T22:40:18.881Z,1.73
2019-03-31T22:42:47.802Z,1.80
2019-03-31T22:45:23.935Z,1.80
2019-03-31T22:47:52.954Z,1.80
2019-03-31T22:50:28.910Z,1.60
2019-03-31T22:52:57.849Z,1.30
2019-03-31T22:55:26.915Z,1.80
2019-03-31T22:58:10.418Z,1.60
2019-03-31T23:00:39.610Z,2.17
2019-03-31T23:03:15.674Z,1.80
2019-03-31T23:05:44.766Z,1.60
2019-03-31T23:08:20.440Z,1.80
2019-03-31T23:10:56.681Z,1.50
2019-03-31T23:13:39.599Z,1.50
2019-03-31T23:16:08.589Z,1.97
2019-03-31T23:18:38.097Z,1.67
2019-03-31T23:21:13.759Z,1.70
2019-03-31T23:23:42.766Z,1.37
2019-03-31T23:26:18.810Z,1.90
2019-03-31T23:28:47.895Z,1.90
2019-03-31T23:31:17.824Z,1.40
2019-03-31T23:33:53.261Z,1.93
2019-03-31T23:36:22.559Z,1.93
2019-03-31T23:38:58.545Z,1.87
2019-03-31T23:41:28.225Z,1.67
2019-03-31T23:43:57.100Z,1.40
2019-03-31T23:46:32.969Z,1.60
2019-03-31T23:49:02.085Z,1.53
2019-03-31T23:51:37.933Z,1.93
2019-03-31T23:54:06.848Z,1.93
2019-03-31T23:56:35.914Z,1.77
2019-03-31T23:59:19.242Z,1.60
